Terminal Aerodrome Forecast
Issued by NWS Green Bay, WI

Home | Current Version | Previous Version | Text Only | Print | Product List | Glossary Off
Versions: 1 2 3 4 5 6 7 8 9 10 11 12 13 14 15 16 17 18 19 20 21 22 23

898
FTUS43 KGRB 140520
TAFGRB
TAF
KGRB 140520Z 1406/1506 00000KT P6SM SCT250
     FM141100 15003KT P6SM BKN250
     FM141600 16007KT P6SM -SN BKN025 BKN100
     FM142100 15011KT 5SM -SN BKN020 OVC040
     FM150000 14010KT 2SM -SN BKN016 OVC025=

USA.gov is the U.S. government's official web portal to all federal, state and local government web resources and services.